sensor_id;sensor_type;location;lat;lon;timestamp;pressure;altitude;pressure_sealevel;temperature;humidity
68107;BME280;54892;47.488;19.026;2023-05-20T00:00:38;100457.66;;;16.26;87.88
68107;BME280;54892;47.488;19.026;2023-05-20T00:03:43;100455.81;;;16.27;87.86
68107;BME280;54892;47.488;19.026;2023-05-20T00:06:47;100454.97;;;16.32;87.48
68107;BME280;54892;47.488;19.026;2023-05-20T00:09:50;100451.25;;;16.27;87.83
68107;BME280;54892;47.488;19.026;2023-05-20T00:12:54;100442.50;;;16.27;87.98
68107;BME280;54892;47.488;19.026;2023-05-20T00:15:57;100446.28;;;16.21;88.57
68107;BME280;54892;47.488;19.026;2023-05-20T00:19:01;100441.50;;;16.18;88.45
68107;BME280;54892;47.488;19.026;2023-05-20T00:22:05;100440.75;;;16.12;88.56
68107;BME280;54892;47.488;19.026;2023-05-20T00:25:09;100439.50;;;16.04;89.16
68107;BME280;54892;47.488;19.026;2023-05-20T00:28:15;100440.28;;;16.05;89.18
68107;BME280;54892;47.488;19.026;2023-05-20T00:31:18;100430.44;;;16.05;89.24
68107;BME280;54892;47.488;19.026;2023-05-20T00:34:24;100437.59;;;16.10;89.03
68107;BME280;54892;47.488;19.026;2023-05-20T00:37:27;100429.25;;;16.17;88.70
68107;BME280;54892;47.488;19.026;2023-05-20T00:40:31;100429.56;;;16.15;88.72
68107;BME280;54892;47.488;19.026;2023-05-20T00:43:34;100434.31;;;16.18;88.74
68107;BME280;54892;47.488;19.026;2023-05-20T00:46:37;100427.41;;;16.17;88.90
68107;BME280;54892;47.488;19.026;2023-05-20T00:49:42;100432.72;;;16.17;89.09
68107;BME280;54892;47.488;19.026;2023-05-20T00:52:46;100426.87;;;16.15;89.30
68107;BME280;54892;47.488;19.026;2023-05-20T00:55:52;100425.75;;;16.21;89.01
68107;BME280;54892;47.488;19.026;2023-05-20T00:59:01;100422.06;;;16.17;89.10
68107;BME280;54892;47.488;19.026;2023-05-20T01:02:05;100422.59;;;16.19;88.85
68107;BME280;54892;47.488;19.026;2023-05-20T01:05:10;100430.59;;;16.19;88.96
68107;BME280;54892;47.488;19.026;2023-05-20T01:08:14;100425.53;;;16.18;88.86
68107;BME280;54892;47.488;19.026;2023-05-20T01:11:22;100429.00;;;16.18;88.95
68107;BME280;54892;47.488;19.026;2023-05-20T01:14:29;100430.09;;;16.12;88.98
68107;BME280;54892;47.488;19.026;2023-05-20T01:17:36;100431.47;;;16.09;88.52
68107;BME280;54892;47.488;19.026;2023-05-20T01:20:42;100436.66;;;15.95;89.47
68107;BME280;54892;47.488;19.026;2023-05-20T01:23:48;100439.63;;;15.89;89.82
68107;BME280;54892;47.488;19.026;2023-05-20T01:26:51;100433.03;;;15.81;90.26
68107;BME280;54892;47.488;19.026;2023-05-20T01:29:54;100439.19;;;15.76;90.79
68107;BME280;54892;47.488;19.026;2023-05-20T01:33:04;100440.03;;;15.72;91.00
68107;BME280;54892;47.488;19.026;2023-05-20T01:36:10;100445.41;;;15.61;91.53
68107;BME280;54892;47.488;19.026;2023-05-20T01:39:16;100444.34;;;15.62;91.58
68107;BME280;54892;47.488;19.026;2023-05-20T01:42:20;100449.88;;;15.66;91.54
68107;BME280;54892;47.488;19.026;2023-05-20T01:45:24;100451.75;;;15.71;91.42
68107;BME280;54892;47.488;19.026;2023-05-20T01:48:28;100450.41;;;15.68;91.37
68107;BME280;54892;47.488;19.026;2023-05-20T01:51:31;100460.78;;;15.70;91.33
68107;BME280;54892;47.488;19.026;2023-05-20T01:54:37;100447.22;;;15.66;91.48
68107;BME280;54892;47.488;19.026;2023-05-20T01:57:40;100448.56;;;15.68;91.63
68107;BME280;54892;47.488;19.026;2023-05-20T02:00:43;100448.62;;;15.58;91.58
68107;BME280;54892;47.488;19.026;2023-05-20T02:03:47;100451.56;;;15.57;91.81
68107;BME280;54892;47.488;19.026;2023-05-20T02:06:50;100456.12;;;15.51;92.12
68107;BME280;54892;47.488;19.026;2023-05-20T02:09:54;100446.56;;;15.50;92.00
68107;BME280;54892;47.488;19.026;2023-05-20T02:12:57;100453.47;;;15.51;92.02
68107;BME280;54892;47.488;19.026;2023-05-20T02:16:01;100456.59;;;15.58;91.52
68107;BME280;54892;47.488;19.026;2023-05-20T02:19:04;100444.97;;;15.49;92.20
68107;BME280;54892;47.488;19.026;2023-05-20T02:22:13;100447.63;;;15.49;92.15
68107;BME280;54892;47.488;19.026;2023-05-20T02:25:18;100443.87;;;15.55;92.03
68107;BME280;54892;47.488;19.026;2023-05-20T02:28:21;100444.44;;;15.52;91.89
68107;BME280;54892;47.488;19.026;2023-05-20T02:31:24;100449.97;;;15.56;91.92
68107;BME280;54892;47.488;19.026;2023-05-20T02:34:28;100449.78;;;15.47;91.91
68107;BME280;54892;47.488;19.026;2023-05-20T02:37:32;100447.84;;;15.58;91.36
68107;BME280;54892;47.488;19.026;2023-05-20T02:40:36;100451.44;;;15.37;92.29
68107;BME280;54892;47.488;19.026;2023-05-20T02:43:39;100458.69;;;15.27;92.88
68107;BME280;54892;47.488;19.026;2023-05-20T02:46:45;100455.47;;;15.30;92.75
68107;BME280;54892;47.488;19.026;2023-05-20T02:49:48;100460.81;;;15.25;93.03
68107;BME280;54892;47.488;19.026;2023-05-20T02:52:52;100457.87;;;15.26;92.89
68107;BME280;54892;47.488;19.026;2023-05-20T02:55:57;100449.66;;;15.22;93.34
68107;BME280;54892;47.488;19.026;2023-05-20T02:59:00;100450.19;;;15.25;93.41
68107;BME280;54892;47.488;19.026;2023-05-20T03:02:04;100449.94;;;15.21;93.58
68107;BME280;54892;47.488;19.026;2023-05-20T03:05:08;100447.22;;;15.26;93.45
68107;BME280;54892;47.488;19.026;2023-05-20T03:08:13;100452.81;;;15.30;93.30
68107;BME280;54892;47.488;19.026;2023-05-20T03:11:18;100455.72;;;15.33;92.56
68107;BME280;54892;47.488;19.026;2023-05-20T03:14:22;100458.91;;;15.35;92.25
68107;BME280;54892;47.488;19.026;2023-05-20T03:17:25;100458.91;;;15.35;92.25
68107;BME280;54892;47.488;19.026;2023-05-20T03:20:29;100464.44;;;15.39;92.00
68107;BME280;54892;47.488;19.026;2023-05-20T03:23:33;100459.09;;;15.44;91.54
68107;BME280;54892;47.488;19.026;2023-05-20T03:26:37;100464.37;;;15.49;90.90
68107;BME280;54892;47.488;19.026;2023-05-20T03:29:44;100469.44;;;15.51;90.81
68107;BME280;54892;47.488;19.026;2023-05-20T03:32:48;100474.00;;;15.45;91.01
68107;BME280;54892;47.488;19.026;2023-05-20T03:35:52;100471.88;;;15.42;91.56
68107;BME280;54892;47.488;19.026;2023-05-20T03:38:56;100476.41;;;15.42;91.83
68107;BME280;54892;47.488;19.026;2023-05-20T03:42:01;100480.38;;;15.44;91.78
68107;BME280;54892;47.488;19.026;2023-05-20T03:45:05;100476.12;;;15.48;91.14
68107;BME280;54892;47.488;19.026;2023-05-20T03:48:09;100473.47;;;15.48;91.21
68107;BME280;54892;47.488;19.026;2023-05-20T03:51:12;100477.94;;;15.53;90.89
68107;BME280;54892;47.488;19.026;2023-05-20T03:54:16;100483.50;;;15.57;90.42
68107;BME280;54892;47.488;19.026;2023-05-20T03:57:21;100486.38;;;15.60;90.27
68107;BME280;54892;47.488;19.026;2023-05-20T04:00:24;100482.59;;;15.72;89.92
68107;BME280;54892;47.488;19.026;2023-05-20T04:03:28;100492.88;;;15.83;89.16
68107;BME280;54892;47.488;19.026;2023-05-20T04:06:32;100500.63;;;15.85;88.62
68107;BME280;54892;47.488;19.026;2023-05-20T04:09:37;100505.13;;;15.84;88.81
68107;BME280;54892;47.488;19.026;2023-05-20T04:12:42;100498.19;;;15.89;88.71
68107;BME280;54892;47.488;19.026;2023-05-20T04:15:46;100501.91;;;15.93;88.36
68107;BME280;54892;47.488;19.026;2023-05-20T04:18:49;100507.09;;;16.08;87.33
68107;BME280;54892;47.488;19.026;2023-05-20T04:21:53;100507.56;;;16.16;87.16
68107;BME280;54892;47.488;19.026;2023-05-20T04:24:57;100512.31;;;16.24;86.28
68107;BME280;54892;47.488;19.026;2023-05-20T04:28:01;100509.50;;;16.39;85.63
68107;BME280;54892;47.488;19.026;2023-05-20T04:31:05;100509.94;;;16.71;83.64
68107;BME280;54892;47.488;19.026;2023-05-20T04:34:09;100512.91;;;16.69;83.83
68107;BME280;54892;47.488;19.026;2023-05-20T04:37:13;100508.84;;;16.77;82.93
68107;BME280;54892;47.488;19.026;2023-05-20T04:40:17;100510.34;;;16.83;82.10
68107;BME280;54892;47.488;19.026;2023-05-20T04:43:22;100511.03;;;16.70;82.53
68107;BME280;54892;47.488;19.026;2023-05-20T04:46:25;100515.34;;;16.66;83.19
68107;BME280;54892;47.488;19.026;2023-05-20T04:49:29;100519.03;;;16.70;83.30
68107;BME280;54892;47.488;19.026;2023-05-20T04:52:32;100527.03;;;16.70;83.50
68107;BME280;54892;47.488;19.026;2023-05-20T04:55:37;100517.69;;;16.72;82.52
68107;BME280;54892;47.488;19.026;2023-05-20T04:58:42;100519.75;;;16.75;82.10
68107;BME280;54892;47.488;19.026;2023-05-20T05:01:45;100526.16;;;16.74;82.42
68107;BME280;54892;47.488;19.026;2023-05-20T05:04:48;100516.53;;;16.79;82.26
68107;BME280;54892;47.488;19.026;2023-05-20T05:07:52;100513.47;;;16.90;81.16
68107;BME280;54892;47.488;19.026;2023-05-20T05:10:56;100511.31;;;16.93;80.60
68107;BME280;54892;47.488;19.026;2023-05-20T05:14:01;100503.56;;;16.96;79.72
68107;BME280;54892;47.488;19.026;2023-05-20T05:17:05;100511.00;;;16.99;79.12
68107;BME280;54892;47.488;19.026;2023-05-20T05:20:09;100515.41;;;17.09;78.27
68107;BME280;54892;47.488;19.026;2023-05-20T05:23:13;100520.41;;;17.16;77.52
68107;BME280;54892;47.488;19.026;2023-05-20T05:26:16;100514.19;;;17.20;76.81
68107;BME280;54892;47.488;19.026;2023-05-20T05:29:21;100514.16;;;17.26;76.29
68107;BME280;54892;47.488;19.026;2023-05-20T05:32:25;100513.34;;;17.25;76.45
68107;BME280;54892;47.488;19.026;2023-05-20T05:35:28;100522.44;;;17.43;76.21
68107;BME280;54892;47.488;19.026;2023-05-20T05:38:32;100520.88;;;17.42;74.16
68107;BME280;54892;47.488;19.026;2023-05-20T05:41:35;100519.78;;;17.43;74.52
68107;BME280;54892;47.488;19.026;2023-05-20T05:44:40;100521.69;;;17.38;74.62
68107;BME280;54892;47.488;19.026;2023-05-20T05:47:44;100524.09;;;17.39;75.32
68107;BME280;54892;47.488;19.026;2023-05-20T05:50:47;100529.84;;;17.46;74.93
68107;BME280;54892;47.488;19.026;2023-05-20T05:53:51;100530.22;;;17.40;75.11
68107;BME280;54892;47.488;19.026;2023-05-20T05:56:55;100539.44;;;17.47;74.96
68107;BME280;54892;47.488;19.026;2023-05-20T06:00:00;100538.25;;;17.59;73.70
68107;BME280;54892;47.488;19.026;2023-05-20T06:03:03;100530.25;;;17.59;73.72
68107;BME280;54892;47.488;19.026;2023-05-20T06:06:07;100533.13;;;17.62;73.68
68107;BME280;54892;47.488;19.026;2023-05-20T06:09:10;100527.91;;;17.71;73.50
68107;BME280;54892;47.488;19.026;2023-05-20T06:12:13;100511.31;;;17.74;73.34
68107;BME280;54892;47.488;19.026;2023-05-20T06:15:19;100526.75;;;17.77;74.51
68107;BME280;54892;47.488;19.026;2023-05-20T06:18:22;100527.12;;;17.90;73.45
68107;BME280;54892;47.488;19.026;2023-05-20T06:21:25;100528.34;;;17.98;72.20
68107;BME280;54892;47.488;19.026;2023-05-20T06:24:29;100532.00;;;18.02;72.40
68107;BME280;54892;47.488;19.026;2023-05-20T06:27:33;100524.13;;;18.10;72.12
68107;BME280;54892;47.488;19.026;2023-05-20T06:30:37;100516.72;;;18.21;72.00
68107;BME280;54892;47.488;19.026;2023-05-20T06:33:41;100526.97;;;18.33;70.76
68107;BME280;54892;47.488;19.026;2023-05-20T06:36:44;100511.31;;;18.40;70.52
68107;BME280;54892;47.488;19.026;2023-05-20T06:39:48;100510.44;;;18.45;69.82
68107;BME280;54892;47.488;19.026;2023-05-20T06:42:54;100506.78;;;18.55;69.03
68107;BME280;54892;47.488;19.026;2023-05-20T06:45:58;100516.88;;;18.58;70.00
68107;BME280;54892;47.488;19.026;2023-05-20T06:49:02;100518.37;;;18.64;69.65
68107;BME280;54892;47.488;19.026;2023-05-20T06:52:06;100516.97;;;18.67;69.38
68107;BME280;54892;47.488;19.026;2023-05-20T06:55:10;100512.44;;;18.67;70.09
68107;BME280;54892;47.488;19.026;2023-05-20T06:58:13;100512.75;;;18.80;69.99
68107;BME280;54892;47.488;19.026;2023-05-20T07:01:18;100515.37;;;18.94;70.25
68107;BME280;54892;47.488;19.026;2023-05-20T07:04:22;100517.34;;;19.30;68.46
68107;BME280;54892;47.488;19.026;2023-05-20T07:07:25;100513.28;;;20.15;65.23
68107;BME280;54892;47.488;19.026;2023-05-20T07:10:29;100512.22;;;21.40;61.08
68107;BME280;54892;47.488;19.026;2023-05-20T07:13:33;100513.75;;;23.19;55.36
68107;BME280;54892;47.488;19.026;2023-05-20T07:16:37;100516.22;;;24.71;48.52
68107;BME280;54892;47.488;19.026;2023-05-20T07:19:41;100507.44;;;25.84;44.31
68107;BME280;54892;47.488;19.026;2023-05-20T07:22:45;100500.19;;;26.69;41.97
68107;BME280;54892;47.488;19.026;2023-05-20T07:25:49;100500.03;;;27.53;42.20
68107;BME280;54892;47.488;19.026;2023-05-20T07:28:53;100494.25;;;27.77;39.57
68107;BME280;54892;47.488;19.026;2023-05-20T07:31:58;100495.56;;;28.57;39.18
68107;BME280;54892;47.488;19.026;2023-05-20T07:35:01;100496.00;;;28.90;36.89
68107;BME280;54892;47.488;19.026;2023-05-20T07:38:05;100504.91;;;28.86;36.15
68107;BME280;54892;47.488;19.026;2023-05-20T07:41:08;100501.25;;;29.36;35.64
68107;BME280;54892;47.488;19.026;2023-05-20T07:44:12;100503.12;;;29.66;35.75
68107;BME280;54892;47.488;19.026;2023-05-20T07:47:16;100502.66;;;29.60;35.93
68107;BME280;54892;47.488;19.026;2023-05-20T07:50:20;100505.66;;;29.48;35.48
68107;BME280;54892;47.488;19.026;2023-05-20T07:53:23;100507.75;;;28.97;37.14
68107;BME280;54892;47.488;19.026;2023-05-20T07:56:27;100503.28;;;29.43;37.27
68107;BME280;54892;47.488;19.026;2023-05-20T07:59:30;100503.81;;;29.59;35.41
68107;BME280;54892;47.488;19.026;2023-05-20T08:02:35;100493.81;;;28.99;36.68
68107;BME280;54892;47.488;19.026;2023-05-20T08:05:40;100504.03;;;29.09;38.07
68107;BME280;54892;47.488;19.026;2023-05-20T08:08:43;100492.34;;;28.48;38.12
68107;BME280;54892;47.488;19.026;2023-05-20T08:11:47;100489.56;;;28.21;39.36
68107;BME280;54892;47.488;19.026;2023-05-20T08:14:50;100491.31;;;27.63;40.13
68107;BME280;54892;47.488;19.026;2023-05-20T08:17:55;100493.38;;;27.11;41.84
68107;BME280;54892;47.488;19.026;2023-05-20T08:20:58;100488.66;;;26.20;42.86
68107;BME280;54892;47.488;19.026;2023-05-20T08:24:03;100484.19;;;25.51;43.74
68107;BME280;54892;47.488;19.026;2023-05-20T08:27:07;100486.75;;;25.19;44.83
68107;BME280;54892;47.488;19.026;2023-05-20T08:30:11;100483.44;;;24.85;46.02
68107;BME280;54892;47.488;19.026;2023-05-20T08:33:16;100467.50;;;24.68;46.43
68107;BME280;54892;47.488;19.026;2023-05-20T08:36:20;100461.97;;;24.64;46.48
68107;BME280;54892;47.488;19.026;2023-05-20T08:39:24;100464.16;;;24.33;48.01
68107;BME280;54892;47.488;19.026;2023-05-20T08:42:28;100470.06;;;24.02;48.56
68107;BME280;54892;47.488;19.026;2023-05-20T08:45:32;100467.97;;;23.86;49.11
68107;BME280;54892;47.488;19.026;2023-05-20T08:48:38;100466.94;;;23.79;49.28
68107;BME280;54892;47.488;19.026;2023-05-20T08:51:42;100467.41;;;23.81;49.61
68107;BME280;54892;47.488;19.026;2023-05-20T08:54:48;100457.09;;;23.83;50.11
68107;BME280;54892;47.488;19.026;2023-05-20T08:57:53;100446.69;;;23.60;52.35
68107;BME280;54892;47.488;19.026;2023-05-20T09:00:57;100452.59;;;23.41;51.10
68107;BME280;54892;47.488;19.026;2023-05-20T09:04:02;100451.47;;;23.42;49.83
68107;BME280;54892;47.488;19.026;2023-05-20T09:07:05;100449.31;;;23.35;50.41
68107;BME280;54892;47.488;19.026;2023-05-20T09:10:09;100446.16;;;23.33;50.96
68107;BME280;54892;47.488;19.026;2023-05-20T09:13:12;100441.69;;;23.37;52.08
68107;BME280;54892;47.488;19.026;2023-05-20T09:16:16;100445.16;;;23.38;52.60
68107;BME280;54892;47.488;19.026;2023-05-20T09:19:20;100444.41;;;23.50;51.48
68107;BME280;54892;47.488;19.026;2023-05-20T09:22:27;100436.78;;;23.52;51.54
68107;BME280;54892;47.488;19.026;2023-05-20T09:25:31;100437.00;;;23.47;51.72
68107;BME280;54892;47.488;19.026;2023-05-20T09:28:34;100440.50;;;23.47;51.82
68107;BME280;54892;47.488;19.026;2023-05-20T09:31:40;100426.38;;;23.50;52.26
68107;BME280;54892;47.488;19.026;2023-05-20T09:34:45;100433.53;;;23.46;51.41
68107;BME280;54892;47.488;19.026;2023-05-20T09:37:51;100430.37;;;23.44;50.68
68107;BME280;54892;47.488;19.026;2023-05-20T09:40:55;100427.81;;;23.60;54.48
68107;BME280;54892;47.488;19.026;2023-05-20T09:44:02;100415.81;;;23.57;52.54
68107;BME280;54892;47.488;19.026;2023-05-20T09:47:07;100408.31;;;23.63;51.92
68107;BME280;54892;47.488;19.026;2023-05-20T09:50:13;100407.53;;;23.75;50.99
68107;BME280;54892;47.488;19.026;2023-05-20T09:53:18;100404.09;;;23.87;49.56
68107;BME280;54892;47.488;19.026;2023-05-20T09:56:22;100400.09;;;24.06;49.68
68107;BME280;54892;47.488;19.026;2023-05-20T09:59:29;100395.47;;;24.06;47.26
68107;BME280;54892;47.488;19.026;2023-05-20T10:02:34;100391.00;;;24.10;48.34
68107;BME280;54892;47.488;19.026;2023-05-20T10:05:41;100396.37;;;24.23;48.77
68107;BME280;54892;47.488;19.026;2023-05-20T10:08:57;100383.66;;;24.23;45.50
68107;BME280;54892;47.488;19.026;2023-05-20T10:12:09;100390.97;;;24.35;46.92
68107;BME280;54892;47.488;19.026;2023-05-20T10:15:17;100387.25;;;24.40;45.37
68107;BME280;54892;47.488;19.026;2023-05-20T10:18:29;100391.41;;;24.37;45.71
68107;BME280;54892;47.488;19.026;2023-05-20T10:21:38;100383.31;;;24.37;46.31
68107;BME280;54892;47.488;19.026;2023-05-20T10:24:42;100385.22;;;24.49;46.00
68107;BME280;54892;47.488;19.026;2023-05-20T10:27:46;100375.87;;;24.46;47.05
68107;BME280;54892;47.488;19.026;2023-05-20T10:30:50;100382.38;;;24.58;45.30
68107;BME280;54892;47.488;19.026;2023-05-20T10:33:53;100365.63;;;24.65;42.54
68107;BME280;54892;47.488;19.026;2023-05-20T10:36:59;100360.44;;;24.72;42.90
68107;BME280;54892;47.488;19.026;2023-05-20T10:40:05;100360.09;;;24.61;43.40
68107;BME280;54892;47.488;19.026;2023-05-20T10:43:09;100358.19;;;24.74;42.28
68107;BME280;54892;47.488;19.026;2023-05-20T10:46:16;100357.59;;;24.81;42.11
68107;BME280;54892;47.488;19.026;2023-05-20T10:49:32;100354.12;;;24.80;40.73
68107;BME280;54892;47.488;19.026;2023-05-20T10:52:37;100357.84;;;24.75;41.66
68107;BME280;54892;47.488;19.026;2023-05-20T10:55:47;100351.44;;;24.80;42.79
68107;BME280;54892;47.488;19.026;2023-05-20T10:58:53;100351.72;;;24.91;39.56
68107;BME280;54892;47.488;19.026;2023-05-20T11:01:57;100342.75;;;25.03;40.00
68107;BME280;54892;47.488;19.026;2023-05-20T11:05:01;100330.22;;;24.95;38.66
68107;BME280;54892;47.488;19.026;2023-05-20T11:08:07;100335.53;;;24.91;39.42
68107;BME280;54892;47.488;19.026;2023-05-20T11:11:14;100338.16;;;25.03;39.49
68107;BME280;54892;47.488;19.026;2023-05-20T11:14:17;100333.44;;;25.00;38.92
68107;BME280;54892;47.488;19.026;2023-05-20T11:17:21;100330.50;;;25.05;40.42
68107;BME280;54892;47.488;19.026;2023-05-20T11:20:25;100332.25;;;25.14;39.83
68107;BME280;54892;47.488;19.026;2023-05-20T11:23:29;100329.22;;;25.31;41.62
68107;BME280;54892;47.488;19.026;2023-05-20T11:26:33;100325.91;;;25.38;42.28
68107;BME280;54892;47.488;19.026;2023-05-20T11:29:37;100317.44;;;25.39;42.09
68107;BME280;54892;47.488;19.026;2023-05-20T11:32:41;100318.37;;;25.44;38.90
68107;BME280;54892;47.488;19.026;2023-05-20T11:35:45;100331.25;;;25.34;40.78
68107;BME280;54892;47.488;19.026;2023-05-20T11:38:51;100328.78;;;25.29;41.07
68107;BME280;54892;47.488;19.026;2023-05-20T11:41:54;100324.19;;;25.30;40.22
68107;BME280;54892;47.488;19.026;2023-05-20T11:44:58;100320.94;;;25.24;41.60
68107;BME280;54892;47.488;19.026;2023-05-20T11:48:03;100311.06;;;25.44;38.13
68107;BME280;54892;47.488;19.026;2023-05-20T11:51:07;100317.44;;;25.39;39.17
68107;BME280;54892;47.488;19.026;2023-05-20T11:54:11;100320.50;;;25.38;39.44
68107;BME280;54892;47.488;19.026;2023-05-20T11:57:15;100307.78;;;25.22;40.39
68107;BME280;54892;47.488;19.026;2023-05-20T12:00:19;100306.78;;;25.43;40.46
68107;BME280;54892;47.488;19.026;2023-05-20T12:03:23;100310.22;;;25.28;41.08
68107;BME280;54892;47.488;19.026;2023-05-20T12:06:26;100295.84;;;25.39;41.98
68107;BME280;54892;47.488;19.026;2023-05-20T12:09:32;100298.91;;;25.38;39.10
68107;BME280;54892;47.488;19.026;2023-05-20T12:12:35;100298.69;;;25.43;39.46
68107;BME280;54892;47.488;19.026;2023-05-20T12:15:39;100297.38;;;25.53;38.32
68107;BME280;54892;47.488;19.026;2023-05-20T12:18:42;100295.84;;;25.39;39.25
68107;BME280;54892;47.488;19.026;2023-05-20T12:21:46;100289.16;;;25.49;42.28
68107;BME280;54892;47.488;19.026;2023-05-20T12:24:51;100295.50;;;25.57;39.90
68107;BME280;54892;47.488;19.026;2023-05-20T12:27:54;100289.50;;;25.64;41.45
68107;BME280;54892;47.488;19.026;2023-05-20T12:30:58;100295.41;;;25.86;38.17
68107;BME280;54892;47.488;19.026;2023-05-20T12:34:01;100288.03;;;25.66;37.23
68107;BME280;54892;47.488;19.026;2023-05-20T12:37:04;100283.47;;;25.71;38.02
68107;BME280;54892;47.488;19.026;2023-05-20T12:40:11;100276.22;;;25.75;37.99
68107;BME280;54892;47.488;19.026;2023-05-20T12:43:15;100279.19;;;25.69;37.19
68107;BME280;54892;47.488;19.026;2023-05-20T12:46:19;100289.13;;;25.81;37.37
68107;BME280;54892;47.488;19.026;2023-05-20T12:49:22;100282.69;;;25.70;38.00
68107;BME280;54892;47.488;19.026;2023-05-20T12:52:26;100282.84;;;25.77;37.28
68107;BME280;54892;47.488;19.026;2023-05-20T12:55:31;100274.16;;;25.68;38.60
68107;BME280;54892;47.488;19.026;2023-05-20T12:58:34;100278.94;;;25.75;38.02
68107;BME280;54892;47.488;19.026;2023-05-20T13:01:37;100270.56;;;25.80;37.74
68107;BME280;54892;47.488;19.026;2023-05-20T13:04:41;100267.41;;;25.78;37.96
68107;BME280;54892;47.488;19.026;2023-05-20T13:07:44;100265.53;;;25.62;40.26
68107;BME280;54892;47.488;19.026;2023-05-20T13:10:49;100254.78;;;25.82;39.22
68107;BME280;54892;47.488;19.026;2023-05-20T13:13:53;100265.38;;;25.91;40.19
68107;BME280;54892;47.488;19.026;2023-05-20T13:16:57;100253.47;;;25.76;39.54
68107;BME280;54892;47.488;19.026;2023-05-20T13:20:01;100249.19;;;25.75;38.70
68107;BME280;54892;47.488;19.026;2023-05-20T13:23:05;100243.09;;;25.62;39.07
68107;BME280;54892;47.488;19.026;2023-05-20T13:26:10;100247.81;;;25.65;38.35
68107;BME280;54892;47.488;19.026;2023-05-20T13:29:13;100242.16;;;25.54;39.84
68107;BME280;54892;47.488;19.026;2023-05-20T13:32:17;100242.34;;;25.61;40.84
68107;BME280;54892;47.488;19.026;2023-05-20T13:35:21;100233.97;;;25.66;40.89
68107;BME280;54892;47.488;19.026;2023-05-20T13:38:25;100235.53;;;25.67;40.97
68107;BME280;54892;47.488;19.026;2023-05-20T13:41:29;100233.69;;;25.39;42.42
68107;BME280;54892;47.488;19.026;2023-05-20T13:44:33;100235.09;;;25.17;43.55
68107;BME280;54892;47.488;19.026;2023-05-20T13:47:36;100229.19;;;25.28;43.12
68107;BME280;54892;47.488;19.026;2023-05-20T13:50:39;100228.66;;;25.38;43.23
68107;BME280;54892;47.488;19.026;2023-05-20T13:53:43;100222.66;;;25.45;43.63
68107;BME280;54892;47.488;19.026;2023-05-20T13:56:47;100222.84;;;25.52;42.74
68107;BME280;54892;47.488;19.026;2023-05-20T13:59:51;100224.63;;;25.32;42.52
68107;BME280;54892;47.488;19.026;2023-05-20T14:02:54;100211.06;;;25.44;42.48
68107;BME280;54892;47.488;19.026;2023-05-20T14:05:58;100212.66;;;25.45;41.33
68107;BME280;54892;47.488;19.026;2023-05-20T14:09:01;100218.81;;;25.46;40.70
68107;BME280;54892;47.488;19.026;2023-05-20T14:12:06;100224.75;;;25.35;39.35
68107;BME280;54892;47.488;19.026;2023-05-20T14:15:10;100212.09;;;25.23;39.43
68107;BME280;54892;47.488;19.026;2023-05-20T14:18:14;100205.38;;;25.33;40.14
68107;BME280;54892;47.488;19.026;2023-05-20T14:21:17;100202.69;;;25.49;37.50
68107;BME280;54892;47.488;19.026;2023-05-20T14:24:20;100198.56;;;25.39;39.27
68107;BME280;54892;47.488;19.026;2023-05-20T14:27:25;100191.53;;;25.51;38.87
68107;BME280;54892;47.488;19.026;2023-05-20T14:30:28;100200.34;;;25.48;38.09
68107;BME280;54892;47.488;19.026;2023-05-20T14:33:32;100202.59;;;25.46;39.54
68107;BME280;54892;47.488;19.026;2023-05-20T14:36:35;100198.16;;;25.53;38.61
68107;BME280;54892;47.488;19.026;2023-05-20T14:39:38;100194.13;;;25.47;38.44
68107;BME280;54892;47.488;19.026;2023-05-20T14:42:43;100186.31;;;25.42;38.92
68107;BME280;54892;47.488;19.026;2023-05-20T14:45:46;100182.81;;;25.42;38.44
68107;BME280;54892;47.488;19.026;2023-05-20T14:48:50;100173.41;;;25.35;37.70
68107;BME280;54892;47.488;19.026;2023-05-20T14:51:53;100183.69;;;25.46;36.96
68107;BME280;54892;47.488;19.026;2023-05-20T14:54:57;100179.31;;;25.25;37.27
68107;BME280;54892;47.488;19.026;2023-05-20T14:58:02;100184.47;;;25.30;36.89
68107;BME280;54892;47.488;19.026;2023-05-20T15:01:05;100179.63;;;25.20;38.21
68107;BME280;54892;47.488;19.026;2023-05-20T15:04:08;100191.88;;;25.33;38.41
68107;BME280;54892;47.488;19.026;2023-05-20T15:07:12;100186.56;;;25.37;37.59
68107;BME280;54892;47.488;19.026;2023-05-20T15:10:16;100191.38;;;25.28;37.69
68107;BME280;54892;47.488;19.026;2023-05-20T15:13:20;100190.75;;;25.18;37.91
68107;BME280;54892;47.488;19.026;2023-05-20T15:16:23;100179.44;;;25.13;38.97
68107;BME280;54892;47.488;19.026;2023-05-20T15:19:27;100180.84;;;25.06;39.28
68107;BME280;54892;47.488;19.026;2023-05-20T15:22:31;100168.56;;;25.09;38.72
68107;BME280;54892;47.488;19.026;2023-05-20T15:25:34;100167.13;;;25.15;39.73
68107;BME280;54892;47.488;19.026;2023-05-20T15:28:39;100169.44;;;25.13;41.81
68107;BME280;54892;47.488;19.026;2023-05-20T15:31:43;100161.12;;;25.22;42.46
68107;BME280;54892;47.488;19.026;2023-05-20T15:34:47;100157.75;;;25.09;42.14
68107;BME280;54892;47.488;19.026;2023-05-20T15:37:51;100154.69;;;25.11;43.63
68107;BME280;54892;47.488;19.026;2023-05-20T15:40:55;100150.41;;;25.09;42.65
68107;BME280;54892;47.488;19.026;2023-05-20T15:44:00;100151.41;;;25.01;42.38
68107;BME280;54892;47.488;19.026;2023-05-20T15:47:03;100147.22;;;24.88;42.36
68107;BME280;54892;47.488;19.026;2023-05-20T15:50:08;100146.16;;;24.76;42.78